createdAt,value
2023-01-01T00:01:50.446Z,35.20
2023-01-01T00:04:52.135Z,34.10
2023-01-01T00:07:53.788Z,36.50
2023-01-01T00:10:55.389Z,39.70
2023-01-01T00:13:57.040Z,31.10
2023-01-01T00:16:58.693Z,36.40
2023-01-01T00:20:00.432Z,45.70
2023-01-01T00:23:02.132Z,41.10
2023-01-01T00:26:10.471Z,43.90
2023-01-01T00:29:12.224Z,47.00
2023-01-01T00:32:19.071Z,44.70
2023-01-01T00:35:25.219Z,49.80
2023-01-01T00:38:26.883Z,57.50
2023-01-01T00:41:28.532Z,51.80
2023-01-01T00:44:30.357Z,51.30
2023-01-01T00:47:32.020Z,57.00
2023-01-01T00:50:33.662Z,54.70
2023-01-01T00:53:35.851Z,59.40
2023-01-01T00:56:37.456Z,58.50
2023-01-01T00:59:39.083Z,67.30
2023-01-01T01:02:41.070Z,68.70
2023-01-01T01:05:43.017Z,68.60
2023-01-01T01:08:46.478Z,66.90
2023-01-01T01:11:48.181Z,58.20
2023-01-01T01:14:49.735Z,69.10
2023-01-01T01:17:51.782Z,70.90
2023-01-01T01:20:53.947Z,81.20
2023-01-01T01:23:57.485Z,86.50
2023-01-01T01:26:59.083Z,88.60
2023-01-01T01:30:00.783Z,82.10
2023-01-01T01:33:02.585Z,81.80
2023-01-01T01:36:04.996Z,76.70
2023-01-01T01:39:06.549Z,79.90
2023-01-01T01:42:08.259Z,91.30
2023-01-01T01:45:13.824Z,94.00
2023-01-01T01:48:16.124Z,92.20
2023-01-01T01:51:23.183Z,75.70
2023-01-01T01:54:27.495Z,82.30
2023-01-01T01:57:29.463Z,90.00
2023-01-01T02:00:31.209Z,90.90
2023-01-01T02:03:49.332Z,96.70
2023-01-01T02:06:52.005Z,98.80
2023-01-01T02:09:54.062Z,95.10
2023-01-01T02:12:55.828Z,80.00
2023-01-01T02:16:06.602Z,89.80
2023-01-01T02:19:26.325Z,87.60
2023-01-01T02:22:27.889Z,87.90
2023-01-01T02:25:46.413Z,92.50
2023-01-01T02:28:47.989Z,100.00
2023-01-01T02:31:52.896Z,99.20
2023-01-01T02:35:00.179Z,111.20
2023-01-01T02:38:07.998Z,92.20
2023-01-01T02:41:14.150Z,91.00
2023-01-01T02:44:16.372Z,93.70
2023-01-01T02:47:19.115Z,98.90
2023-01-01T02:50:22.499Z,98.20
2023-01-01T02:53:30.265Z,107.00
2023-01-01T02:56:40.434Z,88.20
2023-01-01T03:00:14.344Z,87.20
2023-01-01T03:03:31.278Z,86.40
2023-01-01T03:06:44.701Z,83.20
2023-01-01T03:09:49.206Z,90.40
2023-01-01T03:12:59.887Z,94.50
2023-01-01T03:16:18.881Z,74.50
2023-01-01T03:19:23.274Z,72.10
2023-01-01T03:22:28.158Z,71.00
2023-01-01T03:25:32.627Z,84.70
2023-01-01T03:28:36.929Z,82.10
2023-01-01T03:31:40.600Z,85.50
2023-01-01T03:34:45.622Z,92.00
2023-01-01T03:37:49.223Z,81.80
2023-01-01T03:40:52.860Z,73.80
2023-01-01T03:43:57.570Z,83.90
2023-01-01T03:46:59.532Z,87.50
2023-01-01T03:50:02.553Z,82.90
2023-01-01T03:53:09.931Z,95.30
2023-01-01T03:56:26.817Z,81.70
2023-01-01T04:02:36.265Z,77.20
2023-01-01T04:05:39.507Z,73.60
2023-01-01T04:08:41.191Z,76.80
2023-01-01T04:12:04.090Z,80.70
2023-01-01T04:15:06.559Z,77.50
2023-01-01T04:18:08.338Z,75.10
2023-01-01T04:21:09.908Z,70.10
2023-01-01T04:24:11.524Z,73.00
2023-01-01T04:27:13.099Z,73.50
2023-01-01T04:30:15.396Z,76.40
2023-01-01T04:33:17.003Z,84.20
2023-01-01T04:36:18.710Z,85.40
2023-01-01T04:39:20.294Z,92.80
2023-01-01T04:42:21.799Z,77.30
2023-01-01T04:45:23.385Z,75.70
2023-01-01T04:48:25.654Z,74.20
2023-01-01T04:51:27.220Z,71.30
2023-01-01T04:54:28.780Z,67.20
2023-01-01T04:57:30.967Z,75.80
2023-01-01T05:00:33.633Z,81.50
2023-01-01T05:03:35.183Z,67.20
2023-01-01T05:06:37.657Z,72.10
2023-01-01T05:09:39.259Z,74.80
2023-01-01T05:12:40.732Z,73.50
2023-01-01T05:15:42.268Z,80.50
2023-01-01T05:18:44.391Z,89.50
2023-01-01T05:21:46.655Z,89.30
2023-01-01T05:24:48.308Z,77.00
2023-01-01T05:27:49.913Z,72.70
2023-01-01T05:30:52.296Z,66.10
2023-01-01T05:33:54.460Z,69.00
2023-01-01T05:36:56.372Z,72.50
2023-01-01T05:39:57.997Z,83.10
2023-01-01T05:42:59.531Z,84.00
2023-01-01T05:46:08.805Z,68.00
2023-01-01T05:49:11.609Z,64.50
2023-01-01T05:52:13.294Z,64.80
2023-01-01T05:55:14.863Z,71.30
2023-01-01T05:58:16.445Z,77.40
2023-01-01T06:01:20.508Z,80.60
2023-01-01T06:07:24.090Z,86.60
2023-01-01T06:10:25.671Z,72.10
2023-01-01T06:13:29.168Z,64.10
2023-01-01T06:16:31.321Z,60.20
2023-01-01T06:19:32.972Z,55.70
2023-01-01T06:22:36.663Z,62.80
2023-01-01T06:25:38.204Z,63.60
2023-01-01T06:28:40.067Z,64.10
2023-01-01T06:31:41.742Z,46.30
2023-01-01T06:34:43.272Z,48.60
2023-01-01T06:37:44.852Z,50.50
2023-01-01T06:40:55.706Z,49.50
2023-01-01T06:43:57.936Z,49.40
2023-01-01T06:46:59.521Z,51.70
2023-01-01T06:50:01.519Z,51.10
2023-01-01T06:53:03.155Z,55.00
2023-01-01T06:56:05.037Z,51.50
2023-01-01T06:59:06.674Z,49.60
2023-01-01T07:02:10.518Z,52.10
2023-01-01T07:05:12.168Z,50.00
2023-01-01T07:08:13.875Z,57.30
2023-01-01T07:11:15.611Z,58.00
2023-01-01T07:14:18.722Z,62.10
2023-01-01T07:17:20.321Z,50.00
2023-01-01T07:20:21.973Z,51.40
2023-01-01T07:23:24.122Z,51.00
2023-01-01T07:26:26.360Z,56.40
2023-01-01T07:29:28.085Z,61.30
2023-01-01T07:32:29.783Z,58.50
2023-01-01T07:35:31.455Z,68.00
2023-01-01T07:38:33.071Z,62.20
2023-01-01T07:41:34.808Z,55.90
2023-01-01T07:44:37.926Z,64.60
2023-01-01T07:47:39.618Z,66.70
2023-01-01T07:50:41.332Z,66.80
2023-01-01T07:53:42.928Z,68.30
2023-01-01T07:56:45.884Z,66.40
2023-01-01T07:59:47.469Z,63.90
2023-01-01T08:02:49.198Z,58.40
2023-01-01T08:05:51.011Z,58.50
2023-01-01T08:08:52.607Z,70.70
2023-01-01T08:11:54.276Z,64.10
2023-01-01T08:14:55.983Z,66.30
2023-01-01T08:17:58.378Z,69.90
2023-01-01T08:21:00.040Z,62.00
2023-01-01T08:24:01.700Z,61.10
2023-01-01T08:27:03.370Z,65.50
2023-01-01T08:30:05.227Z,63.10
2023-01-01T08:33:07.052Z,56.60
2023-01-01T08:36:10.820Z,60.90
2023-01-01T08:43:40.983Z,70.00
2023-01-01T08:46:42.765Z,71.90
2023-01-01T08:49:44.664Z,60.90
2023-01-01T08:52:46.587Z,59.70
2023-01-01T08:56:01.471Z,52.40
2023-01-01T08:59:04.607Z,57.50
2023-01-01T09:02:06.777Z,52.60
2023-01-01T09:05:09.012Z,51.90
2023-01-01T09:08:10.659Z,52.60
2023-01-01T09:11:25.541Z,53.20
2023-01-01T09:14:27.157Z,49.10
2023-01-01T09:17:28.675Z,45.50
2023-01-01T09:20:30.438Z,39.40
2023-01-01T09:23:31.989Z,42.80
2023-01-01T09:26:33.587Z,40.70
2023-01-01T09:29:35.082Z,40.00
2023-01-01T09:32:37.788Z,41.40
2023-01-01T09:35:39.335Z,31.20
2023-01-01T09:38:40.884Z,36.10
2023-01-01T09:42:04.098Z,30.00
2023-01-01T09:45:05.690Z,28.20
2023-01-01T09:48:11.778Z,29.70
2023-01-01T09:51:15.686Z,31.90
2023-01-01T09:54:27.263Z,31.70
2023-01-01T09:57:30.517Z,30.80
2023-01-01T10:00:33.381Z,27.80
2023-01-01T10:03:53.452Z,28.60
2023-01-01T10:07:00.799Z,27.70
2023-01-01T10:10:08.234Z,31.50
2023-01-01T10:13:25.185Z,29.20
2023-01-01T10:16:35.995Z,28.80
2023-01-01T10:19:45.656Z,26.70
2023-01-01T10:22:49.677Z,26.00
2023-01-01T10:29:03.345Z,30.00
2023-01-01T10:32:15.154Z,29.90
2023-01-01T10:35:26.884Z,27.30
2023-01-01T10:38:32.380Z,30.10
2023-01-01T10:41:33.951Z,28.30
2023-01-01T10:44:36.689Z,27.50
2023-01-01T10:47:38.218Z,30.50
2023-01-01T10:50:48.816Z,31.20
2023-01-01T10:53:52.304Z,29.50
2023-01-01T10:56:53.844Z,34.00
2023-01-01T11:00:08.952Z,33.90
2023-01-01T11:03:20.300Z,33.80
2023-01-01T11:06:22.231Z,36.60
2023-01-01T11:09:26.631Z,41.40
2023-01-01T11:13:03.649Z,42.30
2023-01-01T11:15:56.210Z,40.10
2023-01-01T11:19:02.217Z,44.40
2023-01-01T11:22:04.868Z,43.70
2023-01-01T11:25:26.969Z,45.80
2023-01-01T11:28:31.561Z,46.80
2023-01-01T11:31:35.943Z,45.40
2023-01-01T11:34:39.303Z,44.80
2023-01-01T11:37:41.737Z,44.30
2023-01-01T11:40:49.225Z,53.50
2023-01-01T11:43:51.006Z,45.90
2023-01-01T11:46:52.618Z,48.60
2023-01-01T11:49:58.503Z,50.70
2023-01-01T11:53:18.186Z,54.20
2023-01-01T11:56:22.831Z,52.20
2023-01-01T11:59:27.558Z,44.40
2023-01-01T12:02:40.710Z,50.20
2023-01-01T12:05:48.859Z,44.50
2023-01-01T12:09:14.675Z,51.10
2023-01-01T12:15:35.380Z,49.50
2023-01-01T12:18:45.013Z,49.00
2023-01-01T12:21:52.769Z,47.10
2023-01-01T12:24:54.997Z,50.70
2023-01-01T12:28:05.585Z,42.30
2023-01-01T12:31:09.981Z,43.60
2023-01-01T12:34:18.889Z,46.00
2023-01-01T12:37:27.022Z,45.70
2023-01-01T12:40:29.913Z,48.60
2023-01-01T12:43:40.553Z,46.70
2023-01-01T12:46:50.148Z,50.90
2023-01-01T12:49:57.604Z,46.00
2023-01-01T12:53:02.542Z,47.40
2023-01-01T12:56:08.487Z,43.70
2023-01-01T12:59:13.948Z,45.10
2023-01-01T13:02:20.843Z,43.90
2023-01-01T13:05:25.681Z,44.90
2023-01-01T13:08:27.367Z,46.50
2023-01-01T13:11:29.326Z,47.40
2023-01-01T13:14:30.956Z,45.10
2023-01-01T13:17:32.508Z,50.80
2023-01-01T13:20:39.992Z,43.30
2023-01-01T13:23:42.173Z,48.00
2023-01-01T13:26:44.745Z,47.90
2023-01-01T13:29:47.367Z,43.10
2023-01-01T13:33:08.919Z,43.00
2023-01-01T13:36:19.588Z,56.40
2023-01-01T13:39:39.679Z,52.30
2023-01-01T13:42:44.624Z,55.80
2023-01-01T13:49:33.849Z,50.30
2023-01-01T13:52:58.289Z,48.70
2023-01-01T13:56:02.826Z,49.50
2023-01-01T13:59:23.146Z,51.00
2023-01-01T14:02:29.833Z,50.80
2023-01-01T14:05:45.788Z,51.60
2023-01-01T14:09:00.381Z,53.90
2023-01-01T14:12:09.200Z,47.60
2023-01-01T14:15:17.022Z,46.10
2023-01-01T14:18:19.183Z,47.30
2023-01-01T14:21:21.908Z,47.70
2023-01-01T14:24:24.363Z,48.30
2023-01-01T14:27:27.476Z,46.90
2023-01-01T14:30:31.297Z,52.20
2023-01-01T14:33:34.040Z,51.40
2023-01-01T14:36:35.576Z,46.50
2023-01-01T14:39:37.351Z,47.30
2023-01-01T14:42:40.201Z,43.50
2023-01-01T14:45:42.585Z,46.70
2023-01-01T14:48:44.955Z,44.50
2023-01-01T14:51:48.784Z,43.10
2023-01-01T14:54:51.200Z,45.70
2023-01-01T14:57:56.494Z,46.30
2023-01-01T15:01:14.642Z,44.80
2023-01-01T15:04:23.844Z,49.50
2023-01-01T15:07:27.057Z,46.50
2023-01-01T15:10:29.544Z,43.00
2023-01-01T15:13:31.158Z,44.00
2023-01-01T15:16:40.044Z,45.30
2023-01-01T15:19:43.475Z,42.40
2023-01-01T15:22:45.194Z,46.40
2023-01-01T15:25:47.278Z,45.80
2023-01-01T15:28:48.868Z,44.70
2023-01-01T15:31:54.159Z,42.90
2023-01-01T15:34:56.850Z,43.40
2023-01-01T15:38:00.536Z,45.00
2023-01-01T15:41:22.151Z,45.40
2023-01-01T15:44:36.610Z,43.70
2023-01-01T15:47:38.810Z,46.40
2023-01-01T15:50:49.984Z,41.10
2023-01-01T15:54:02.086Z,44.90
2023-01-01T15:57:03.847Z,43.30
2023-01-01T16:00:05.525Z,43.80
2023-01-01T16:03:19.732Z,48.90
2023-01-01T16:06:21.970Z,45.90
2023-01-01T16:09:23.677Z,49.30
2023-01-01T16:12:25.337Z,47.20
2023-01-01T16:15:27.174Z,45.10
2023-01-01T16:18:31.623Z,44.40
2023-01-01T16:21:33.749Z,46.50
2023-01-01T16:24:36.425Z,48.10
2023-01-01T16:27:37.981Z,50.60
2023-01-01T16:30:39.622Z,49.50
2023-01-01T16:33:42.479Z,51.20
2023-01-01T16:36:44.933Z,49.10
2023-01-01T16:39:46.567Z,46.40
2023-01-01T16:42:48.156Z,49.50
2023-01-01T16:45:51.180Z,45.90
2023-01-01T16:48:52.891Z,45.50
2023-01-01T16:51:54.513Z,46.40
2023-01-01T16:54:56.293Z,45.80
2023-01-01T16:58:21.165Z,66.60
2023-01-01T17:01:19.991Z,63.20
2023-01-01T17:04:21.638Z,51.00
2023-01-01T17:07:23.179Z,46.90
2023-01-01T17:10:24.714Z,41.30
2023-01-01T17:13:27.428Z,42.80
2023-01-01T17:16:34.380Z,44.20
2023-01-01T17:19:38.062Z,45.20
2023-01-01T17:22:39.851Z,41.80
2023-01-01T17:25:41.394Z,41.20
2023-01-01T17:28:43.644Z,40.20
2023-01-01T17:31:45.263Z,44.20
2023-01-01T17:34:46.882Z,54.20
2023-01-01T17:37:48.444Z,55.00
2023-01-01T17:40:50.052Z,44.00
2023-01-01T17:43:52.208Z,46.10
2023-01-01T17:51:23.363Z,43.40
2023-01-01T17:54:24.958Z,38.40
2023-01-01T17:57:28.979Z,44.30
2023-01-01T18:00:31.121Z,45.70
2023-01-01T18:03:32.770Z,46.40
2023-01-01T18:06:40.659Z,46.90
2023-01-01T18:09:43.700Z,46.10
2023-01-01T18:12:45.283Z,42.20
2023-01-01T18:15:47.089Z,49.20
2023-01-01T18:18:49.052Z,40.40
2023-01-01T18:21:50.616Z,43.60
2023-01-01T18:24:52.238Z,41.90
2023-01-01T18:27:57.432Z,40.20
2023-01-01T18:31:05.373Z,42.40
2023-01-01T18:34:07.184Z,44.70
2023-01-01T18:37:08.756Z,46.50
2023-01-01T18:40:14.790Z,39.70
2023-01-01T18:43:19.530Z,47.00
2023-01-01T18:46:23.533Z,39.60
2023-01-01T18:49:25.666Z,47.70
2023-01-01T18:52:27.762Z,45.30
2023-01-01T18:55:30.811Z,43.40
2023-01-01T18:58:32.881Z,39.90
2023-01-01T19:01:35.514Z,41.90
2023-01-01T19:04:37.420Z,37.40
2023-01-01T19:07:38.933Z,42.10
2023-01-01T19:10:43.162Z,44.90
2023-01-01T19:13:44.893Z,42.70
2023-01-01T19:16:47.700Z,44.10
2023-01-01T19:19:49.397Z,39.90
2023-01-01T19:22:51.008Z,43.20
2023-01-01T19:25:52.815Z,46.60
2023-01-01T19:28:59.858Z,45.90
2023-01-01T19:32:01.462Z,45.20
2023-01-01T19:35:03.734Z,42.80
2023-01-01T19:38:05.553Z,42.50
2023-01-01T19:41:07.928Z,45.50
2023-01-01T19:44:10.573Z,40.10
2023-01-01T19:47:14.021Z,44.70
2023-01-01T19:50:15.804Z,41.00
2023-01-01T19:53:17.390Z,40.40
2023-01-01T19:56:19.248Z,42.90
2023-01-01T19:59:20.921Z,42.20
2023-01-01T20:05:43.932Z,40.60
2023-01-01T20:08:45.534Z,43.10
2023-01-01T20:11:50.669Z,40.40
2023-01-01T20:14:53.879Z,40.00
2023-01-01T20:17:55.571Z,42.60
2023-01-01T20:21:19.178Z,45.60
2023-01-01T20:24:25.833Z,41.60
2023-01-01T20:27:27.753Z,38.60
2023-01-01T20:30:29.372Z,37.10
2023-01-01T20:33:30.862Z,37.30
2023-01-01T20:36:50.810Z,38.40
2023-01-01T20:39:52.406Z,41.60
2023-01-01T20:42:54.100Z,41.60
2023-01-01T20:45:55.808Z,40.10
2023-01-01T20:48:57.813Z,38.90
2023-01-01T20:51:59.366Z,38.30
2023-01-01T20:55:00.948Z,37.30
2023-01-01T20:58:02.493Z,36.00
2023-01-01T21:01:04.205Z,38.10
2023-01-01T21:04:05.836Z,39.80
2023-01-01T21:07:08.449Z,39.90
2023-01-01T21:10:10.120Z,40.90
2023-01-01T21:13:11.728Z,38.40
2023-01-01T21:16:16.374Z,43.80
2023-01-01T21:19:24.351Z,36.80
2023-01-01T21:22:28.153Z,37.60
2023-01-01T21:25:52.869Z,39.60
2023-01-01T21:28:54.589Z,37.40
2023-01-01T21:32:16.415Z,35.20
2023-01-01T21:35:27.104Z,34.90
2023-01-01T21:38:31.464Z,33.20
2023-01-01T21:41:34.315Z,39.50
2023-01-01T21:44:36.015Z,35.70
2023-01-01T21:47:38.758Z,37.50
2023-01-01T21:50:41.204Z,32.50
2023-01-01T21:53:42.872Z,40.60
2023-01-01T21:56:56.296Z,38.60
2023-01-01T21:59:57.889Z,39.60
2023-01-01T22:02:59.469Z,34.90
2023-01-01T22:06:05.403Z,39.70
2023-01-01T22:09:27.214Z,38.80
2023-01-01T22:12:29.981Z,36.30
2023-01-01T22:15:41.296Z,40.00
2023-01-01T22:18:43.232Z,35.30
2023-01-01T22:21:46.226Z,37.10
2023-01-01T22:24:58.870Z,35.80
2023-01-01T22:28:06.159Z,38.10
2023-01-01T22:31:10.602Z,39.00
2023-01-01T22:34:19.311Z,37.10
2023-01-01T22:37:22.069Z,35.40
2023-01-01T22:40:50.106Z,38.60
2023-01-01T22:43:53.332Z,36.00
2023-01-01T22:46:58.698Z,37.80
2023-01-01T22:50:01.224Z,43.40
2023-01-01T22:53:02.774Z,39.60
2023-01-01T22:56:04.398Z,41.10
2023-01-01T22:59:05.982Z,34.70
2023-01-01T23:02:08.058Z,34.50
2023-01-01T23:05:10.037Z,38.20
2023-01-01T23:08:11.617Z,38.20
2023-01-01T23:11:13.335Z,37.80
2023-01-01T23:14:38.612Z,39.40
2023-01-01T23:17:40.767Z,44.70
2023-01-01T23:20:42.283Z,37.30
2023-01-01T23:23:44.459Z,37.40
2023-01-01T23:26:46.787Z,37.90
2023-01-01T23:29:49.204Z,38.70
2023-01-01T23:32:50.875Z,37.40
2023-01-01T23:35:52.893Z,39.70
2023-01-01T23:38:54.644Z,44.20
2023-01-01T23:41:56.454Z,38.00
2023-01-01T23:44:58.095Z,37.60
2023-01-01T23:47:59.618Z,39.10
2023-01-01T23:51:01.315Z,36.50
2023-01-01T23:54:02.879Z,36.00
2023-01-01T23:57:04.761Z,36.30
